Time;durP1;ratioP1;P1;durP2;ratioP2;P2;SDS_P1;SDS_P2;PMS_P1;PMS_P2;Temp;Humidity;BMP_temperature;BMP_pressure;BME280_temperature;BME280_humidity;BME280_pressure;Samples;Min_cycle;Max_cycle;Signal;HPM_P1;HPM_P2
2023/08/17 00:00:48;;;;;;;5.10;3.30;;;;;;;22.16;95.89;100728.63;4876654;29;20304;-70
2023/08/17 00:03:16;;;;;;;7.13;3.35;;;;;;;22.11;95.79;100730.09;4879797;29;20232;-71
2023/08/17 00:05:44;;;;;;;7.63;3.33;;;;;;;22.09;95.79;100724.06;4878709;29;20214;-70
2023/08/17 00:08:11;;;;;;;9.73;3.20;;;;;;;22.09;96.31;100739.44;4878868;29;20313;-71
2023/08/17 00:10:40;;;;;;;6.10;2.97;;;;;;;22.07;96.04;100734.28;4878054;29;20221;-69
2023/08/17 00:13:08;;;;;;;7.13;3.00;;;;;;;22.03;95.70;100733.03;4878212;29;20352;-70
2023/08/17 00:15:36;;;;;;;6.37;2.67;;;;;;;22.03;95.30;100722.25;4876895;29;20317;-69
2023/08/17 00:18:04;;;;;;;9.03;2.97;;;;;;;22.01;95.07;100729.72;4879648;29;20966;-69
2023/08/17 00:20:32;;;;;;;6.78;2.65;;;;;;;22.02;95.12;100728.69;4882145;29;20209;-70
2023/08/17 00:22:59;;;;;;;5.63;2.97;;;;;;;22.05;94.56;100724.72;4878056;29;20241;-69
2023/08/17 00:25:27;;;;;;;5.27;3.37;;;;;;;22.05;94.57;100730.97;4879195;29;20213;-70
2023/08/17 00:27:56;;;;;;;6.13;2.97;;;;;;;22.03;94.93;100722.25;4875697;29;20337;-69
2023/08/17 00:30:24;;;;;;;4.07;2.43;;;;;;;21.99;94.96;100715.59;4877223;29;20741;-71
2023/08/17 00:32:52;;;;;;;5.13;2.60;;;;;;;21.98;94.96;100722.09;4879441;29;20826;-70
2023/08/17 00:35:20;;;;;;;5.37;3.10;;;;;;;21.99;94.76;100722.88;4873801;29;20220;-70
2023/08/17 00:37:47;;;;;;;5.70;3.10;;;;;;;21.96;95.44;100726.00;4875285;29;20803;-70
2023/08/17 00:40:15;;;;;;;10.23;3.60;;;;;;;21.94;95.37;100723.50;4875198;29;20582;-70
2023/08/17 00:42:43;;;;;;;7.93;2.83;;;;;;;21.88;95.68;100718.16;4877442;29;20273;-71
2023/08/17 00:45:12;;;;;;;6.87;3.83;;;;;;;21.93;94.92;100716.44;4876279;29;20233;-72
2023/08/17 00:47:40;;;;;;;7.77;4.17;;;;;;;21.93;95.06;100704.81;4878092;29;20226;-70
2023/08/17 00:50:09;;;;;;;7.70;3.60;;;;;;;21.95;94.79;100705.44;4876938;29;20221;-70
2023/08/17 00:52:36;;;;;;;5.67;3.83;;;;;;;21.93;94.27;100700.25;4878234;29;20933;-70
2023/08/17 00:55:06;;;;;;;5.83;3.63;;;;;;;21.95;94.15;100703.56;4878894;29;20349;-70
2023/08/17 00:57:34;;;;;;;3.90;3.35;;;;;;;21.89;95.28;100701.75;4876879;29;20220;-69
2023/08/17 01:00:04;;;;;;;4.97;3.23;;;;;;;21.84;95.22;100700.72;4878260;29;20210;-71
2023/08/17 01:02:35;;;;;;;9.43;3.60;;;;;;;21.84;94.84;100701.53;4877683;29;20376;-70
2023/08/17 01:05:05;;;;;;;6.40;3.27;;;;;;;21.82;95.20;100698.22;4877510;29;20210;-70
2023/08/17 01:07:33;;;;;;;8.20;3.50;;;;;;;21.86;94.26;100707.56;4876799;29;20849;-70
2023/08/17 01:10:03;;;;;;;5.20;3.47;;;;;;;21.89;93.75;100709.84;4876957;29;20213;-70
2023/08/17 01:12:32;;;;;;;5.77;3.60;;;;;;;21.86;94.56;100704.03;4876975;29;20256;-71
2023/08/17 01:15:06;;;;;;;7.37;3.17;;;;;;;21.80;94.75;100707.63;4875700;29;20206;-70
2023/08/17 01:17:41;;;;;;;8.17;3.50;;;;;;;21.80;93.95;100700.34;4875203;29;21195;-69
2023/08/17 01:20:12;;;;;;;7.27;3.70;;;;;;;21.80;94.07;100710.31;4874206;29;20202;-69
2023/08/17 01:22:42;;;;;;;6.03;3.47;;;;;;;21.73;94.60;100704.91;4874920;29;20248;-71
2023/08/17 01:25:11;;;;;;;4.80;3.17;;;;;;;21.72;95.07;100708.69;4874225;29;20217;-70
2023/08/17 01:27:41;;;;;;;7.03;3.50;;;;;;;21.72;95.40;100708.69;4875752;29;20690;-69
2023/08/17 01:30:11;;;;;;;7.17;3.93;;;;;;;21.72;94.96;100708.69;4874119;29;20209;-69
2023/08/17 01:32:45;;;;;;;5.53;3.03;;;;;;;21.67;95.39;100703.91;4876906;29;20309;-70
2023/08/17 01:35:21;;;;;;;12.60;3.77;;;;;;;21.66;95.10;100699.56;4874469;29;20853;-70
2023/08/17 01:37:52;;;;;;;6.70;3.87;;;;;;;21.66;94.53;100694.16;4872522;29;20237;-69
2023/08/17 01:40:23;;;;;;;8.07;3.47;;;;;;;21.66;94.98;100694.16;4874878;29;20207;-72
2023/08/17 01:42:51;;;;;;;5.20;3.13;;;;;;;21.62;94.84;100694.81;4877167;29;20238;-70
2023/08/17 01:45:19;;;;;;;8.27;3.70;;;;;;;21.66;93.92;100694.16;4876176;29;20216;-69
2023/08/17 01:47:47;;;;;;;5.70;3.40;;;;;;;21.69;94.01;100690.22;4875310;29;20282;-71
2023/08/17 01:50:15;;;;;;;5.63;3.17;;;;;;;21.62;93.94;100684.88;4877611;29;20273;-70
2023/08/17 01:52:42;;;;;;;11.17;3.20;;;;;;;21.61;93.90;100682.38;4874961;29;20250;-71
2023/08/17 01:55:10;;;;;;;5.93;2.93;;;;;;;21.61;93.92;100687.78;4875374;29;20241;-71
2023/08/17 01:57:39;;;;;;;5.43;3.00;;;;;;;21.58;94.02;100682.78;4877451;29;20214;-71
2023/08/17 02:00:10;;;;;;;7.63;2.93;;;;;;;21.57;93.75;100683.84;4880658;29;20708;-71
2023/08/17 02:02:38;;;;;;;6.60;3.17;;;;;;;21.52;94.21;100689.06;4878392;29;20246;-70
2023/08/17 02:05:06;;;;;;;5.30;2.67;;;;;;;21.52;94.33;100675.56;4877554;29;20220;-70
2023/08/17 02:07:34;;;;;;;6.10;2.90;;;;;;;21.49;94.44;100682.22;4878205;29;20305;-71
2023/08/17 02:10:02;;;;;;;6.33;2.50;;;;;;;21.51;93.60;100680.13;4875445;29;20305;-69
2023/08/17 02:12:29;;;;;;;5.77;2.60;;;;;;;21.52;94.01;100675.56;4878510;29;20248;-72
2023/08/17 02:14:58;;;;;;;7.20;2.63;;;;;;;21.50;94.36;100677.63;4878961;29;20214;-70
2023/08/17 02:17:26;;;;;;;5.20;2.70;;;;;;;21.48;94.37;100671.63;4876112;29;20300;-69
2023/08/17 02:19:55;;;;;;;4.83;2.80;;;;;;;21.49;93.71;100670.59;4878229;29;21009;-71
2023/08/17 02:22:22;;;;;;;6.03;2.73;;;;;;;21.46;94.06;100668.34;4879744;29;20217;-72
2023/08/17 02:24:50;;;;;;;9.07;2.57;;;;;;;21.45;94.14;100669.38;4874768;29;20331;-70
2023/08/17 02:27:19;;;;;;;10.57;2.73;;;;;;;21.40;93.92;100672.69;4874119;29;20218;-70
2023/08/17 02:29:47;;;;;;;4.60;2.40;;;;;;;21.40;93.80;100659.22;4875332;29;20220;-71
2023/08/17 02:32:16;;;;;;;5.47;2.43;;;;;;;21.40;93.31;100659.22;4875338;29;20270;-71
2023/08/17 02:34:44;;;;;;;4.77;2.27;;;;;;;21.37;93.67;100657.75;4873791;29;20675;-71
2023/08/17 02:37:12;;;;;;;5.80;2.87;;;;;;;21.42;93.20;100664.41;4876242;29;20206;-71
2023/08/17 02:39:40;;;;;;;5.20;2.67;;;;;;;21.38;93.80;100658.59;4873112;29;20216;-70
2023/08/17 02:42:08;;;;;;;5.77;3.10;;;;;;;21.35;93.60;100662.56;4872915;29;20233;-69
2023/08/17 02:44:36;;;;;;;6.53;3.17;;;;;;;21.30;93.92;100659.66;4875523;29;20238;-70
2023/08/17 02:47:04;;;;;;;7.07;3.00;;;;;;;21.28;93.66;100667.16;4876076;29;20311;-70
2023/08/17 02:49:33;;;;;;;4.07;2.90;;;;;;;21.28;93.80;100658.25;4874432;29;20294;-69
2023/08/17 02:52:01;;;;;;;8.67;3.77;;;;;;;21.28;93.74;100656.38;4877194;29;20218;-71
2023/08/17 02:54:28;;;;;;;9.00;4.00;;;;;;;21.29;93.76;100652.59;4874658;29;20210;-71
2023/08/17 02:56:56;;;;;;;8.87;4.30;;;;;;;21.28;94.03;100667.16;4872586;29;20299;-69
2023/08/17 02:59:24;;;;;;;10.13;4.50;;;;;;;21.29;93.61;100663.41;4874818;29;20248;-69
2023/08/17 03:01:51;;;;;;;8.80;5.00;;;;;;;21.28;94.14;100660.94;4875293;29;21119;-70
2023/08/17 03:04:19;;;;;;;7.67;5.00;;;;;;;21.28;93.96;100664.47;4874913;29;20244;-70
2023/08/17 03:06:48;;;;;;;10.73;5.43;;;;;;;21.29;93.91;100666.09;4873333;29;20240;-71
2023/08/17 03:09:16;;;;;;;9.43;6.80;;;;;;;21.28;93.82;100669.03;4873718;29;20346;-70
2023/08/17 03:11:44;;;;;;;9.63;6.00;;;;;;;21.25;94.31;100669.44;4872020;29;20308;-70
2023/08/17 03:14:11;;;;;;;10.80;6.77;;;;;;;21.24;94.13;100663.22;4874817;29;20233;-70
2023/08/17 03:16:40;;;;;;;10.93;7.40;;;;;;;21.20;94.48;100653.88;4873745;29;20330;-70
2023/08/17 03:19:10;;;;;;;10.57;7.50;;;;;;;21.18;95.20;100668.66;4872971;29;20713;-70
2023/08/17 03:21:38;;;;;;;32.07;8.63;;;;;;;21.15;95.20;100659.06;4877989;29;20734;-70
2023/08/17 03:24:08;;;;;;;12.10;8.40;;;;;;;21.16;95.37;100659.91;4877915;29;20324;-71
2023/08/17 03:26:35;;;;;;;13.57;8.67;;;;;;;21.19;95.15;100654.97;4879683;29;20214;-70
2023/08/17 03:29:03;;;;;;;15.17;9.30;;;;;;;21.25;94.29;100658.66;4876004;29;20286;-70
2023/08/17 03:31:31;;;;;;;16.30;9.37;;;;;;;21.20;95.27;100667.38;4880020;29;20210;-71
2023/08/17 03:34:00;;;;;;;24.60;10.23;;;;;;;21.20;95.07;100667.38;4875973;29;20333;-70
2023/08/17 03:36:27;;;;;;;16.00;10.50;;;;;;;21.18;95.49;100669.47;4878665;29;20242;-69
2023/08/17 03:38:55;;;;;;;21.43;11.63;;;;;;;21.19;95.37;100663.03;4877267;29;20293;-70
2023/08/17 03:41:25;;;;;;;18.80;12.05;;;;;;;21.30;95.76;100662.38;4880755;29;20544;-65
2023/08/17 03:43:53;;;;;;;16.43;11.27;;;;;;;21.24;95.91;100663.22;4877611;29;20230;-67
2023/08/17 03:46:20;;;;;;;18.23;12.30;;;;;;;21.19;97.18;100665.75;4877075;29;20217;-68
2023/08/17 03:48:48;;;;;;;19.83;12.47;;;;;;;21.17;97.89;100667.81;4877557;29;20232;-67
2023/08/17 03:51:16;;;;;;;27.27;13.40;;;;;;;21.15;97.52;100669.88;4876646;29;20221;-68
2023/08/17 03:53:44;;;;;;;22.90;13.60;;;;;;;21.14;97.73;100667.38;4878062;29;20305;-64
2023/08/17 03:56:11;;;;;;;18.10;12.47;;;;;;;21.10;98.92;100666.16;4877024;29;20214;-63
2023/08/17 03:58:40;;;;;;;23.53;14.77;;;;;;;21.06;99.33;100671.13;4878752;29;20321;-63
2023/08/17 04:01:08;;;;;;;21.13;13.60;;;;;;;21.02;99.73;100659.13;4876699;29;20297;-63
2023/08/17 04:03:36;;;;;;;27.87;15.33;;;;;;;21.01;99.81;100666.38;4880523;29;20223;-63
2023/08/17 04:06:06;;;;;;;27.23;15.33;;;;;;;21.02;99.60;100669.91;4879382;29;20695;-63
2023/08/17 04:08:33;;;;;;;26.87;15.87;;;;;;;20.98;100.00;100668.66;4877762;29;20298;-66
2023/08/17 04:11:01;;;;;;;23.07;15.53;;;;;;;20.98;99.60;100672.19;4877529;29;20297;-62
2023/08/17 04:13:29;;;;;;;25.80;16.40;;;;;;;20.98;99.87;100668.66;4875939;29;21258;-62
2023/08/17 04:15:58;;;;;;;23.13;15.60;;;;;;;20.95;100.00;100679.84;4877056;29;20673;-63
2023/08/17 04:18:26;;;;;;;22.47;16.00;;;;;;;20.93;100.00;100676.56;4881526;29;20295;-63
2023/08/17 04:20:53;;;;;;;22.60;16.13;;;;;;;20.94;100.00;100680.88;4880166;29;20306;-63
2023/08/17 04:23:22;;;;;;;25.60;16.77;;;;;;;20.95;100.00;100679.84;4879520;29;20603;-62
2023/08/17 04:25:49;;;;;;;26.20;16.27;;;;;;;20.94;100.00;100680.88;4878345;29;21014;-63
2023/08/17 04:28:17;;;;;;;27.03;17.17;;;;;;;20.95;100.00;100696.03;4874906;29;20668;-65
2023/08/17 04:30:45;;;;;;;25.40;17.60;;;;;;;20.93;100.00;100681.97;4877433;29;20250;-63
2023/08/17 04:33:14;;;;;;;26.13;17.60;;;;;;;20.97;100.00;100693.97;4878188;29;20218;-64
2023/08/17 04:35:41;;;;;;;28.67;18.83;;;;;;;20.95;100.00;100685.25;4877862;29;20745;-64
2023/08/17 04:38:09;;;;;;;30.50;20.33;;;;;;;20.95;100.00;100690.63;4878653;29;20266;-63
2023/08/17 04:40:37;;;;;;;29.23;19.43;;;;;;;20.95;100.00;100696.03;4877472;29;20214;-64
2023/08/17 04:43:05;;;;;;;30.53;20.50;;;;;;;20.96;100.00;100693.13;4877404;29;20968;-63
2023/08/17 04:45:33;;;;;;;31.20;19.87;;;;;;;20.97;100.00;100689.41;4879202;29;20328;-63
2023/08/17 04:48:01;;;;;;;30.53;20.23;;;;;;;20.96;100.00;100692.31;4877087;29;20206;-65
2023/08/17 04:50:30;;;;;;;32.80;20.93;;;;;;;20.99;100.00;100692.72;4878301;29;20209;-63
2023/08/17 04:52:58;;;;;;;34.33;21.73;;;;;;;21.02;100.00;100694.19;4879488;29;20331;-63
2023/08/17 04:55:25;;;;;;;32.30;22.37;;;;;;;21.02;100.00;100694.19;4880463;29;20224;-63
2023/08/17 04:57:53;;;;;;;30.93;20.27;;;;;;;21.04;100.00;100695.59;4877526;29;20218;-62
2023/08/17 05:00:27;;;;;;;33.07;21.47;;;;;;;21.06;100.00;100695.41;4879048;29;20201;-62
2023/08/17 05:02:55;;;;;;;35.57;20.87;;;;;;;21.05;100.00;100699.13;4877462;29;20206;-64
2023/08/17 05:05:23;;;;;;;30.60;20.90;;;;;;;21.09;100.00;100705.78;4878214;29;20233;-63
2023/08/17 05:07:53;;;;;;;34.50;21.63;;;;;;;21.10;100.00;100710.13;4878814;29;20297;-63
2023/08/17 05:10:21;;;;;;;30.70;21.43;;;;;;;21.09;100.00;100711.16;4878709;29;20203;-63
2023/08/17 05:12:49;;;;;;;30.73;20.77;;;;;;;21.09;100.00;100708.47;4879728;29;20220;-63
2023/08/17 05:15:16;;;;;;;31.57;21.17;;;;;;;21.10;100.00;100710.13;4880263;29;20746;-63
2023/08/17 05:17:44;;;;;;;34.43;22.43;;;;;;;21.11;100.00;100716.34;4875880;29;20213;-63
2023/08/17 05:20:13;;;;;;;33.47;22.53;;;;;;;21.13;100.00;100708.84;4879119;29;20237;-64
2023/08/17 05:22:41;;;;;;;37.43;23.50;;;;;;;21.16;100.00;100719.22;4877135;29;20244;-62
2023/08/17 05:25:10;;;;;;;33.63;21.93;;;;;;;21.17;100.00;100715.50;4877325;29;20920;-62
2023/08/17 05:27:37;;;;;;;37.03;24.30;;;;;;;21.18;100.00;100717.19;4875057;29;20529;-64
2023/08/17 05:30:06;;;;;;;36.23;23.40;;;;;;;21.18;100.00;100727.97;4874007;29;20612;-64
2023/08/17 05:32:34;;;;;;;34.90;23.87;;;;;;;21.17;100.00;100732.53;4876344;29;20571;-64
2023/08/17 05:35:01;;;;;;;37.47;23.83;;;;;;;21.22;100.00;100727.31;4876076;29;20268;-66
2023/08/17 05:37:29;;;;;;;36.60;24.20;;;;;;;21.18;100.00;100728.81;4874898;29;20555;-64
2023/08/17 05:39:57;;;;;;;33.40;23.50;;;;;;;21.19;100.00;100732.34;4876123;29;20209;-63
2023/08/17 05:42:26;;;;;;;36.33;22.73;;;;;;;21.22;100.00;100727.31;4874799;29;20340;-63
2023/08/17 05:44:53;;;;;;;35.83;23.03;;;;;;;21.20;100.00;100732.09;4873761;29;20248;-62
2023/08/17 05:47:21;;;;;;;34.10;22.97;;;;;;;21.22;100.00;100730.03;4874679;29;20214;-63
2023/08/17 05:49:49;;;;;;;34.77;24.30;;;;;;;21.27;100.00;100729.41;4873890;29;20220;-62
2023/08/17 05:52:16;;;;;;;33.97;23.07;;;;;;;21.29;100.00;100725.44;4872744;29;20810;-65
2023/08/17 05:54:44;;;;;;;35.37;24.43;;;;;;;21.30;100.00;100724.41;4875657;29;20625;-63
2023/08/17 05:57:12;;;;;;;36.87;23.73;;;;;;;21.33;100.00;100725.84;4874984;29;20213;-63
2023/08/17 05:59:41;;;;;;;35.90;24.30;;;;;;;21.35;100.00;100735.41;4874445;29;20214;-64
2023/08/17 06:02:09;;;;;;;36.43;24.70;;;;;;;21.34;100.00;100733.72;4874669;29;20369;-61
2023/08/17 06:04:36;;;;;;;37.07;23.37;;;;;;;21.34;100.00;100733.72;4874536;29;20675;-64
2023/08/17 06:07:04;;;;;;;36.93;23.27;;;;;;;21.33;100.00;100732.06;4877032;29;20987;-63
2023/08/17 06:09:32;;;;;;;32.77;23.40;;;;;;;21.35;100.00;100732.69;4878040;29;20309;-63
2023/08/17 06:12:00;;;;;;;33.90;23.40;;;;;;;21.37;100.00;100724.41;4874807;29;20210;-63
2023/08/17 06:14:27;;;;;;;36.27;24.37;;;;;;;21.37;100.00;100722.50;4879655;29;20602;-63
2023/08/17 06:16:56;;;;;;;38.93;24.87;;;;;;;21.40;100.00;100729.34;4877499;29;20734;-63
2023/08/17 06:19:24;;;;;;;36.73;24.00;;;;;;;21.43;100.00;100728.09;4877562;29;20225;-64
2023/08/17 06:21:52;;;;;;;34.40;24.17;;;;;;;21.43;100.00;100731.63;4871184;29;20206;-64
2023/08/17 06:24:19;;;;;;;36.50;24.60;;;;;;;21.50;99.73;100737.00;4873328;29;21258;-64
2023/08/17 06:26:47;;;;;;;36.83;25.40;;;;;;;21.49;100.00;100733.47;4872023;29;20241;-63
2023/08/17 06:29:15;;;;;;;38.53;24.77;;;;;;;21.49;100.00;100740.72;4873650;29;20222;-64
2023/08/17 06:31:43;;;;;;;36.50;24.17;;;;;;;21.51;100.00;100734.09;4871774;29;20308;-62
2023/08/17 06:34:12;;;;;;;34.60;22.67;;;;;;;21.53;100.00;100740.13;4873060;29;20358;-64
2023/08/17 06:36:40;;;;;;;31.07;21.93;;;;;;;21.55;99.76;100748.00;4874725;29;20221;-63
2023/08/17 06:39:08;;;;;;;33.47;20.37;;;;;;;21.53;99.97;100752.78;4874350;29;20206;-63
2023/08/17 06:41:36;;;;;;;22.43;17.50;;;;;;;21.52;98.72;100754.63;4874340;29;20230;-63
2023/08/17 06:44:05;;;;;;;27.00;17.20;;;;;;;21.51;98.69;100749.44;4873110;29;20224;-63
2023/08/17 06:46:33;;;;;;;18.63;15.30;;;;;;;21.53;97.96;100747.38;4874378;29;20226;-63
2023/08/17 06:49:01;;;;;;;22.00;15.17;;;;;;;21.53;97.99;100737.41;4874732;29;20297;-62
2023/08/17 06:51:30;;;;;;;18.13;13.67;;;;;;;21.53;98.03;100741.97;4875817;29;20652;-63
2023/08/17 06:53:58;;;;;;;21.63;14.10;;;;;;;21.54;97.77;100739.06;4872938;29;20232;-63
2023/08/17 06:56:25;;;;;;;17.00;13.97;;;;;;;21.55;98.51;100737.22;4876106;29;20336;-65
2023/08/17 06:58:53;;;;;;;20.57;13.97;;;;;;;21.56;97.25;100745.06;4874481;29;20828;-63
2023/08/17 07:01:21;;;;;;;16.77;12.37;;;;;;;21.59;96.89;100746.50;4876497;29;20300;-62
2023/08/17 07:03:49;;;;;;;18.17;13.00;;;;;;;21.61;96.47;100749.84;4876561;29;20206;-65
2023/08/17 07:06:16;;;;;;;16.23;11.70;;;;;;;21.61;98.19;100749.84;4875433;29;20238;-63
2023/08/17 07:08:45;;;;;;;17.97;11.77;;;;;;;21.62;98.95;100746.09;4876281;29;20214;-62
2023/08/17 07:11:13;;;;;;;13.50;10.67;;;;;;;21.63;99.56;100743.19;4876535;29;20308;-63
2023/08/17 07:13:41;;;;;;;16.92;10.98;;;;;;;21.61;100.00;100736.34;4873368;29;20214;-64
2023/08/17 07:16:09;;;;;;;19.80;12.23;;;;;;;21.59;100.00;100741.13;4875966;29;20224;-64
2023/08/17 07:18:37;;;;;;;15.67;13.90;;;;;;;21.59;99.28;100735.72;4873801;29;20242;-64
2023/08/17 07:21:04;;;;;;;19.10;14.47;;;;;;;21.60;97.81;100738.22;4877088;29;20220;-64
2023/08/17 07:23:32;;;;;;;21.13;16.07;;;;;;;21.62;97.40;100738.00;4877369;29;20965;-63
2023/08/17 07:26:01;;;;;;;19.77;15.63;;;;;;;21.67;97.08;100743.56;4878289;29;20410;-63
2023/08/17 07:28:29;;;;;;;25.17;15.40;;;;;;;21.66;98.03;100745.44;4877539;29;20689;-63
2023/08/17 07:30:57;;;;;;;21.23;15.40;;;;;;;21.71;97.63;100744.81;4874791;29;20206;-64
2023/08/17 07:33:24;;;;;;;18.15;14.15;;;;;;;21.75;99.03;100746.03;4877796;29;20647;-64
2023/08/17 07:35:53;;;;;;;18.75;13.98;;;;;;;21.76;99.04;100747.69;4878527;29;20319;-65
2023/08/17 07:38:20;;;;;;;16.30;12.00;;;;;;;21.78;98.85;100751.84;4873759;29;20214;-62
2023/08/17 07:40:48;;;;;;;15.73;11.70;;;;;;;21.81;98.36;100750.59;4876930;29;20222;-63
2023/08/17 07:43:17;;;;;;;14.55;11.32;;;;;;;21.81;97.50;100760.56;4877888;29;20234;-63
2023/08/17 07:45:45;;;;;;;14.68;11.90;;;;;;;21.78;96.73;100761.81;4875382;29;20214;-65
2023/08/17 07:48:13;;;;;;;16.63;12.70;;;;;;;21.75;96.48;100768.44;4876814;29;20217;-65
2023/08/17 07:50:40;;;;;;;15.17;11.50;;;;;;;21.75;97.27;100773.03;4875842;29;21118;-64
2023/08/17 07:53:08;;;;;;;15.63;10.70;;;;;;;21.76;97.70;100766.56;4876546;29;20283;-64
2023/08/17 07:55:36;;;;;;;13.43;10.80;;;;;;;21.77;97.61;100760.16;4875471;29;20205;-62
2023/08/17 07:58:05;;;;;;;13.90;11.33;;;;;;;21.79;97.37;100755.38;4875759;29;20226;-64
2023/08/17 08:00:34;;;;;;;17.43;11.90;;;;;;;21.82;96.84;100754.91;4877978;29;20246;-63
2023/08/17 08:03:02;;;;;;;16.50;12.13;;;;;;;21.83;96.52;100764.69;4878455;29;20328;-64
2023/08/17 08:05:30;;;;;;;13.75;10.10;;;;;;;21.88;96.34;100764.88;4877719;29;20236;-64
2023/08/17 08:07:57;;;;;;;14.70;10.38;;;;;;;21.89;96.59;100757.59;4876779;29;20249;-64
2023/08/17 08:10:25;;;;;;;13.33;10.50;;;;;;;21.92;95.32;100763.38;4877344;29;20732;-65
2023/08/17 08:12:53;;;;;;;12.60;9.60;;;;;;;21.92;95.22;100762.56;4879203;29;20308;-63
2023/08/17 08:15:21;;;;;;;13.17;9.80;;;;;;;21.93;95.46;100762.34;4875075;29;20728;-63
2023/08/17 08:17:50;;;;;;;14.27;10.38;;;;;;;21.96;95.23;100761.94;4877994;29;20222;-64
2023/08/17 08:20:18;;;;;;;12.85;11.30;;;;;;;21.97;95.75;100760.06;4878590;29;20676;-63
2023/08/17 08:22:45;;;;;;;15.77;10.33;;;;;;;21.96;95.15;100761.94;4878739;29;20217;-64
2023/08/17 08:25:13;;;;;;;140.77;35.17;;;;;;;21.98;95.38;100761.75;4877881;29;20211;-62
2023/08/17 08:27:41;;;;;;;29.70;13.55;;;;;;;21.98;95.95;100757.19;4877851;29;20237;-63
2023/08/17 08:30:09;;;;;;;25.25;12.98;;;;;;;22.01;95.23;100759.44;4875445;29;20947;-64
2023/08/17 08:32:37;;;;;;;16.80;11.93;;;;;;;21.99;95.37;100760.69;4873884;29;20309;-65
2023/08/17 08:35:07;;;;;;;17.25;10.90;;;;;;;21.98;95.51;100751.78;4876717;29;20813;-62
2023/08/17 08:37:34;;;;;;;15.70;11.80;;;;;;;22.01;96.29;100751.31;4876201;29;20589;-63
2023/08/17 08:40:02;;;;;;;14.93;12.13;;;;;;;22.03;97.10;100751.13;4876163;29;20759;-66
2023/08/17 08:42:30;;;;;;;16.33;10.90;;;;;;;22.03;96.61;100746.53;4875291;29;20727;-64
2023/08/17 08:44:57;;;;;;;15.60;10.50;;;;;;;22.06;96.11;100754.22;4876659;29;20212;-64
2023/08/17 08:47:27;;;;;;;13.32;11.20;;;;;;;22.10;96.11;100743.81;4874429;29;20245;-63
2023/08/17 08:50:02;;;;;;;17.15;11.93;;;;;;;22.13;97.55;100749.59;4872617;29;20207;-63
2023/08/17 08:52:35;;;;;;;13.68;9.98;;;;;;;22.14;95.92;100751.28;4874985;29;20688;-68
2023/08/17 08:55:13;;;;;;;17.73;10.18;;;;;;;22.18;96.62;100743.53;4876555;29;20209;-66
2023/08/17 08:57:42;;;;;;;16.63;11.25;;;;;;;22.23;96.07;100749.13;4877210;29;20249;-68
2023/08/17 09:00:12;;;;;;;14.60;12.02;;;;;;;22.32;95.91;100741.59;4874424;29;20301;-66
2023/08/17 09:02:40;;;;;;;12.80;10.27;;;;;;;22.37;96.19;100739.06;4875731;29;20660;-63
2023/08/17 09:05:10;;;;;;;16.40;10.27;;;;;;;22.39;94.01;100737.81;4873963;29;20210;-67
2023/08/17 09:07:40;;;;;;;10.65;9.30;;;;;;;22.45;94.13;100747.72;4873545;29;20634;-64
2023/08/17 09:10:10;;;;;;;13.45;9.80;;;;;;;22.51;93.07;100741.47;4875566;29;20214;-63
2023/08/17 09:12:40;;;;;;;11.75;9.45;;;;;;;22.60;93.23;100744.72;4874515;29;20213;-65
2023/08/17 09:15:09;;;;;;;14.57;9.82;;;;;;;22.76;93.03;100738.78;4874264;29;20223;-66
2023/08/17 09:17:37;;;;;;;12.35;10.98;;;;;;;22.85;91.72;100736.63;4874538;29;20222;-63
2023/08/17 09:20:07;;;;;;;13.18;9.90;;;;;;;22.94;91.44;100738.00;4876223;29;20210;-65
2023/08/17 09:22:41;;;;;;;13.68;9.27;;;;;;;23.03;92.10;100736.66;4879285;29;20261;-65
2023/08/17 09:25:10;;;;;;;14.95;10.38;;;;;;;23.02;91.96;100742.28;4878193;29;20213;-65
2023/08/17 09:27:41;;;;;;;11.77;10.55;;;;;;;22.97;92.31;100736.72;4875629;29;20245;-63
2023/08/17 09:30:10;;;;;;;9.60;8.48;;;;;;;22.96;90.06;100740.47;4875403;29;20206;-64
2023/08/17 09:32:38;;;;;;;12.00;9.77;;;;;;;22.95;90.25;100731.56;4875699;29;20209;-65
2023/08/17 09:35:07;;;;;;;12.23;9.90;;;;;;;22.97;88.74;100737.53;4877744;29;20683;-64
2023/08/17 09:37:35;;;;;;;14.48;9.40;;;;;;;22.99;89.61;100731.91;4876254;29;20297;-65
2023/08/17 09:40:05;;;;;;;9.65;8.57;;;;;;;23.03;89.71;100733.97;4876416;29;20266;-65
2023/08/17 09:42:36;;;;;;;12.35;9.95;;;;;;;23.09;89.27;100734.94;4875025;29;20328;-64
2023/08/17 09:45:04;;;;;;;13.32;10.88;;;;;;;23.15;88.22;100737.56;4873643;29;20284;-65
2023/08/17 09:47:32;;;;;;;14.27;9.85;;;;;;;23.31;89.28;100741.56;4875147;29;20265;-65
2023/08/17 09:50:00;;;;;;;14.05;9.43;;;;;;;23.41;88.95;100747.28;4874507;29;20592;-65
2023/08/17 09:52:27;;;;;;;13.15;9.63;;;;;;;23.41;89.16;100749.97;4875753;29;20205;-64
2023/08/17 09:54:57;;;;;;;10.30;9.30;;;;;;;23.39;89.51;100745.88;4873491;29;20210;-63
2023/08/17 09:57:26;;;;;;;9.80;8.80;;;;;;;23.38;89.18;100747.75;4874377;29;20305;-65
2023/08/17 09:59:54;;;;;;;10.75;8.45;;;;;;;23.42;88.51;100746.22;4871564;29;20216;-64
2023/08/17 10:02:24;;;;;;;13.73;9.52;;;;;;;23.41;87.06;100736.44;4873580;29;20215;-63
2023/08/17 10:04:58;;;;;;;10.25;9.07;;;;;;;23.40;86.06;100729.38;4876465;29;20361;-63
2023/08/17 10:07:31;;;;;;;10.75;8.95;;;;;;;23.45;86.83;100721.44;4874621;29;20724;-64
2023/08/17 10:10:04;;;;;;;11.88;9.27;;;;;;;23.58;87.28;100720.47;4872666;29;20214;-64
2023/08/17 10:12:38;;;;;;;9.65;7.68;;;;;;;23.70;84.94;100717.81;4875541;29;20207;-63
2023/08/17 10:15:11;;;;;;;10.07;8.25;;;;;;;23.85;84.48;100720.94;4872249;29;20232;-64
2023/08/17 10:17:55;;;;;;;13.25;8.75;;;;;;;23.99;84.57;100733.25;4872997;29;20232;-64
2023/08/17 10:20:24;;;;;;;11.70;8.90;;;;;;;24.11;84.20;100741.41;4874131;29;20205;-64
2023/08/17 10:23:00;;;;;;;12.05;7.72;;;;;;;24.33;82.69;100724.44;4876053;29;20210;-63
2023/08/17 10:25:29;;;;;;;11.80;8.65;;;;;;;24.52;81.92;100722.47;4874747;29;20198;-64
2023/08/17 10:28:00;;;;;;;11.27;9.07;;;;;;;24.79;78.81;100711.19;4874520;29;20872;-65
2023/08/17 10:30:28;;;;;;;10.90;8.18;;;;;;;25.04;78.42;100714.50;4875541;29;21128;-63
2023/08/17 10:32:56;;;;;;;11.60;8.15;;;;;;;25.29;77.64;100714.25;4876596;29;20214;-64
2023/08/17 10:35:24;;;;;;;16.17;7.70;;;;;;;25.46;76.67;100720.56;4879138;29;20617;-64
2023/08/17 10:37:52;;;;;;;10.57;8.32;;;;;;;25.59;74.07;100714.91;4880192;29;20219;-64
2023/08/17 10:40:26;;;;;;;11.10;7.95;;;;;;;25.79;75.17;100718.00;4877549;29;20687;-63
2023/08/17 10:42:55;;;;;;;8.65;6.70;;;;;;;25.97;74.32;100710.75;4877094;29;20328;-63
2023/08/17 10:45:29;;;;;;;7.80;6.63;;;;;;;26.24;72.85;100709.06;4876604;29;20739;-64
2023/08/17 10:48:27;;;;;;;12.35;7.00;;;;;;;26.50;72.59;100703.00;4877644;29;20221;-64
2023/08/17 10:51:03;;;;;;;6.75;5.50;;;;;;;26.65;71.77;100707.06;4872126;29;20214;-64
2023/08/17 10:53:42;;;;;;;7.22;5.97;;;;;;;26.76;71.03;100712.41;4879408;29;20214;-63
2023/08/17 10:56:12;;;;;;;7.68;5.95;;;;;;;26.82;71.17;100719.59;4879576;29;20198;-64
2023/08/17 10:58:41;;;;;;;9.43;6.63;;;;;;;26.83;69.48;100701.34;4878062;29;20209;-64
2023/08/17 11:01:10;;;;;;;8.27;5.82;;;;;;;27.01;69.35;100695.66;4878372;29;20218;-64
2023/08/17 11:03:39;;;;;;;12.85;7.05;;;;;;;27.14;69.43;100708.91;4877798;29;20231;-64
2023/08/17 11:06:18;;;;;;;8.38;5.88;;;;;;;27.25;68.13;100697.09;4875770;29;20213;-64
2023/08/17 11:08:54;;;;;;;10.10;5.80;;;;;;;27.40;67.52;100701.06;4877760;29;20265;-63
2023/08/17 11:11:23;;;;;;;8.13;6.32;;;;;;;27.47;67.93;100702.50;4879715;29;20237;-63
2023/08/17 11:13:53;;;;;;;7.65;5.50;;;;;;;27.62;67.72;100700.00;4875397;29;20328;-63
2023/08/17 11:16:26;;;;;;;7.30;5.47;;;;;;;27.80;65.48;100696.09;4875959;29;20202;-63
2023/08/17 11:18:56;;;;;;;13.23;5.50;;;;;;;28.12;64.33;100690.72;4876648;29;20222;-65
2023/08/17 11:21:24;;;;;;;6.53;5.47;;;;;;;28.52;63.30;100675.81;4879083;29;20206;-66